Time;durP1;ratioP1;P1;durP2;ratioP2;P2;SDS_P1;SDS_P2;PMS_P1;PMS_P2;Temp;Humidity;BMP_temperature;BMP_pressure;BME280_temperature;BME280_humidity;BME280_pressure;Samples;Min_cycle;Max_cycle;Signal;HPM_P1;HPM_P2
2022/12/26 00:00:11;;;;;;;2.30;1.00;;;;;;;;;;5017228;28;20069;-84
2022/12/26 00:02:36;;;;;;;2.03;1.10;;;;;;;;;;5016573;28;20045;-84
2022/12/26 00:05:02;;;;;;;2.00;1.10;;;;;;;;;;5016250;28;20557;-84
2022/12/26 00:07:28;;;;;;;1.35;1.08;;;;;;;;;;4999239;28;20053;-84
2022/12/26 00:09:53;;;;;;;1.50;0.90;;;;;;;;;;5017152;28;20042;-84
2022/12/26 00:12:19;;;;;;;4.57;1.17;;;;;;;;;;4999014;28;20076;-84
2022/12/26 00:14:44;;;;;;;2.03;1.13;;;;;;;;;;5016041;28;20049;-84
2022/12/26 00:17:10;;;;;;;1.83;1.10;;;;;;;;;;5016660;28;20437;-84
2022/12/26 00:19:35;;;;;;;1.60;1.10;;;;;;;;;;5015151;28;20038;-84
2022/12/26 00:22:01;;;;;;;1.13;0.90;;;;;;;;;;5017095;28;20044;-84
2022/12/26 00:24:26;;;;;;;1.75;1.08;;;;;;;;;;5015628;28;20033;-84
2022/12/26 00:26:51;;;;;;;2.03;1.17;;;;;;;;;;5016424;28;20084;-84
2022/12/26 00:29:17;;;;;;;1.90;1.20;;;;;;;;;;5016494;28;20030;-83
2022/12/26 00:31:42;;;;;;;2.00;1.00;;;;;;;;;;5016643;28;20117;-84
2022/12/26 00:34:09;;;;;;;1.27;1.00;;;;;;;;;;5014430;28;20046;-84
2022/12/26 00:36:34;;;;;;;1.00;0.88;;;;;;;;;;5016036;28;20037;-84
2022/12/26 00:39:01;;;;;;;1.45;1.00;;;;;;;;;;5015891;28;20058;-84
2022/12/26 00:41:27;;;;;;;1.27;0.90;;;;;;;;;;5013217;28;20029;-83
2022/12/26 00:43:54;;;;;;;4.05;1.10;;;;;;;;;;5016056;28;20553;-84
2022/12/26 00:46:23;;;;;;;1.85;1.00;;;;;;;;;;5014662;28;20053;-84
2022/12/26 00:48:49;;;;;;;1.33;1.00;;;;;;;;;;5014449;28;20038;-84
2022/12/26 00:51:15;;;;;;;1.10;0.93;;;;;;;;;;5015650;28;20429;-83
2022/12/26 00:53:40;;;;;;;1.58;1.00;;;;;;;;;;5015730;28;20482;-84
2022/12/26 00:56:06;;;;;;;3.08;0.80;;;;;;;;;;5015184;28;20033;-84
2022/12/26 00:58:31;;;;;;;1.67;1.00;;;;;;;;;;5016158;28;20112;-84
2022/12/26 01:01:29;;;;;;;1.30;0.98;;;;;;;;;;5015771;28;20042;-84
2022/12/26 01:03:56;;;;;;;2.22;0.90;;;;;;;;;;5007404;28;20056;-82
2022/12/26 01:06:21;;;;;;;1.17;0.90;;;;;;;;;;5015256;28;20044;-83
2022/12/26 01:08:47;;;;;;;0.75;0.75;;;;;;;;;;5015741;28;20116;-83
2022/12/26 01:11:15;;;;;;;1.25;0.90;;;;;;;;;;5014169;28;20034;-84
2022/12/26 01:13:41;;;;;;;2.67;0.90;;;;;;;;;;5015243;28;20041;-84
2022/12/26 01:16:07;;;;;;;1.40;1.00;;;;;;;;;;5015008;28;20033;-84
2022/12/26 01:18:33;;;;;;;1.17;0.80;;;;;;;;;;5015625;28;20537;-84
2022/12/26 01:21:01;;;;;;;0.73;0.70;;;;;;;;;;5015678;28;20030;-84
2022/12/26 01:23:27;;;;;;;2.53;0.80;;;;;;;;;;5015454;28;20065;-84
2022/12/26 01:25:53;;;;;;;1.17;0.90;;;;;;;;;;5014763;28;20038;-84
2022/12/26 01:28:18;;;;;;;1.10;0.80;;;;;;;;;;5014387;28;20521;-84
2022/12/26 01:30:44;;;;;;;2.65;0.90;;;;;;;;;;5015474;28;20530;-84
2022/12/26 01:33:09;;;;;;;1.10;0.80;;;;;;;;;;4997413;28;20561;-84
2022/12/26 01:35:35;;;;;;;1.25;0.90;;;;;;;;;;5014726;28;20042;-84
2022/12/26 01:38:01;;;;;;;1.85;1.00;;;;;;;;;;5015152;28;20030;-84
2022/12/26 01:40:27;;;;;;;2.60;0.88;;;;;;;;;;5013734;28;20105;-84
2022/12/26 01:42:52;;;;;;;1.60;1.02;;;;;;;;;;5014742;28;20548;-84
2022/12/26 01:45:28;;;;;;;2.25;1.08;;;;;;;;;;5014641;28;20041;-84
2022/12/26 01:48:15;;;;;;;1.83;1.00;;;;;;;;;;5014141;28;20037;-84
2022/12/26 01:50:46;;;;;;;2.63;0.95;;;;;;;;;;5013357;28;20486;-84
2022/12/26 01:53:11;;;;;;;1.30;0.90;;;;;;;;;;5014387;28;20057;-84
2022/12/26 01:55:38;;;;;;;1.60;0.95;;;;;;;;;;5012941;28;20459;-84
2022/12/26 01:58:13;;;;;;;1.30;1.00;;;;;;;;;;5015234;28;20026;-84
2022/12/26 02:00:39;;;;;;;1.17;0.95;;;;;;;;;;5014809;28;20297;-84
2022/12/26 02:05:53;;;;;;;1.80;0.88;;;;;;;;;;5012714;28;20505;-84
2022/12/26 02:08:24;;;;;;;1.90;1.00;;;;;;;;;;5014613;28;20442;-84
2022/12/26 02:11:08;;;;;;;0.98;0.82;;;;;;;;;;5013456;28;20046;-84
2022/12/26 02:13:36;;;;;;;2.88;1.00;;;;;;;;;;5013417;28;20034;-84
2022/12/26 02:16:04;;;;;;;1.15;0.98;;;;;;;;;;5012525;28;20037;-84
2022/12/26 02:18:29;;;;;;;1.48;0.95;;;;;;;;;;5014137;28;20088;-84
2022/12/26 02:21:13;;;;;;;1.40;0.95;;;;;;;;;;5014530;28;20030;-84
2022/12/26 02:24:16;;;;;;;1.90;1.02;;;;;;;;;;5014586;28;20042;-85
2022/12/26 02:27:09;;;;;;;1.10;0.90;;;;;;;;;;5013217;28;20029;-84
2022/12/26 02:29:58;;;;;;;1.40;0.93;;;;;;;;;;5014464;28;20041;-84
2022/12/26 02:32:24;;;;;;;2.75;1.05;;;;;;;;;;5014225;28;20061;-84
2022/12/26 02:35:05;;;;;;;0.75;0.73;;;;;;;;;;5013704;28;20026;-84
2022/12/26 02:37:40;;;;;;;1.20;0.90;;;;;;;;;;5013037;28;20407;-84
2022/12/26 02:40:32;;;;;;;4.18;0.90;;;;;;;;;;5014150;28;20060;-84
2022/12/26 02:43:51;;;;;;;1.27;0.85;;;;;;;;;;5007434;28;20176;-84
2022/12/26 03:13:09;;;;;;;1.55;0.90;;;;;;;;;;5013607;28;20042;-84
2022/12/26 03:15:10;;;;;;;1.05;0.80;;;;;;;;;;5013845;28;20029;-83
2022/12/26 03:17:48;;;;;;;1.02;0.70;;;;;;;;;;5011884;28;20038;-83
2022/12/26 03:20:23;;;;;;;2.30;0.82;;;;;;;;;;5012126;28;20104;-83
2022/12/26 03:22:53;;;;;;;1.30;0.73;;;;;;;;;;5013570;28;20055;-84
2022/12/26 03:28:10;;;;;;;1.63;0.95;;;;;;;;;;5013377;28;20034;-83
2022/12/26 03:30:47;;;;;;;0.95;0.70;;;;;;;;;;5013170;28;20018;-83
2022/12/26 03:36:23;;;;;;;1.15;0.90;;;;;;;;;;4982084;28;20053;-84
2022/12/26 03:39:08;;;;;;;0.85;0.77;;;;;;;;;;5013245;28;20061;-83
2022/12/26 04:20:21;;;;;;;1.25;0.60;;;;;;;;;;5014682;28;20044;-83
2022/12/26 04:45:59;;;;;;;3.33;0.80;;;;;;;;;;5013564;28;20044;-83
2022/12/26 04:51:09;;;;;;;0.98;0.77;;;;;;;;;;5014226;28;20482;-84
2022/12/26 04:53:35;;;;;;;0.82;0.73;;;;;;;;;;5015375;28;20040;-83
2022/12/26 04:56:00;;;;;;;1.60;1.05;;;;;;;;;;5014431;28;20034;-83
2022/12/26 04:58:26;;;;;;;1.33;1.00;;;;;;;;;;5013411;28;20069;-83
2022/12/26 05:09:32;;;;;;;1.38;0.75;;;;;;;;;;5013468;28;20045;-83
2022/12/26 05:11:53;;;;;;;2.53;1.00;;;;;;;;;;5013622;28;20061;-83
2022/12/26 05:14:18;;;;;;;1.35;0.90;;;;;;;;;;5014276;28;20478;-83
2022/12/26 05:30:27;;;;;;;1.05;0.90;;;;;;;;;;5014439;28;20034;-83
2022/12/26 05:35:37;;;;;;;1.70;1.00;;;;;;;;;;5013601;28;20036;-83
2022/12/26 05:38:03;;;;;;;1.20;0.90;;;;;;;;;;5013032;28;20030;-83
2022/12/26 05:40:29;;;;;;;1.10;1.00;;;;;;;;;;5014062;28;20415;-83
2022/12/26 05:42:54;;;;;;;1.80;1.13;;;;;;;;;;5014140;28;20392;-83
2022/12/26 05:45:20;;;;;;;2.58;1.23;;;;;;;;;;5013712;28;20061;-83
2022/12/26 05:47:45;;;;;;;3.85;1.60;;;;;;;;;;5012821;28;20065;-83
2022/12/26 05:50:10;;;;;;;4.15;2.45;;;;;;;;;;5014693;28;20449;-83
2022/12/26 05:52:36;;;;;;;2.95;1.70;;;;;;;;;;5014094;28;20037;-83
2022/12/26 05:55:02;;;;;;;2.08;1.60;;;;;;;;;;5013345;28;20042;-83
2022/12/26 05:57:27;;;;;;;3.10;2.20;;;;;;;;;;5014102;28;20038;-83
2022/12/26 05:59:53;;;;;;;3.35;2.05;;;;;;;;;;5014004;28;20517;-83
2022/12/26 06:02:18;;;;;;;2.33;1.58;;;;;;;;;;5012648;28;20029;-83
2022/12/26 06:04:43;;;;;;;1.98;1.35;;;;;;;;;;5013366;28;20113;-83
2022/12/26 06:07:09;;;;;;;1.30;1.10;;;;;;;;;;5012663;28;20037;-83
2022/12/26 06:09:34;;;;;;;2.53;1.17;;;;;;;;;;5013776;28;20033;-83
2022/12/26 06:12:00;;;;;;;1.80;1.30;;;;;;;;;;5013628;28;20041;-83
2022/12/26 06:14:25;;;;;;;1.42;1.08;;;;;;;;;;5012187;28;20117;-83
2022/12/26 06:16:51;;;;;;;1.48;1.10;;;;;;;;;;5013822;28;20430;-82
2022/12/26 06:19:16;;;;;;;1.50;0.95;;;;;;;;;;5013744;28;20045;-83
2022/12/26 06:21:42;;;;;;;1.42;1.10;;;;;;;;;;4995842;28;20125;-83
2022/12/26 06:24:07;;;;;;;1.38;0.90;;;;;;;;;;5012417;28;20125;-82
2022/12/26 06:26:33;;;;;;;0.90;0.82;;;;;;;;;;5014039;28;20034;-83
2022/12/26 06:28:58;;;;;;;2.28;1.10;;;;;;;;;;5012288;28;20548;-83
2022/12/26 06:31:24;;;;;;;1.60;1.20;;;;;;;;;;5013517;28;20045;-82
2022/12/26 06:33:53;;;;;;;1.75;0.90;;;;;;;;;;5011969;28;20044;-82
2022/12/26 06:36:21;;;;;;;1.33;1.00;;;;;;;;;;5013166;28;20453;-83
2022/12/26 06:38:47;;;;;;;2.03;1.33;;;;;;;;;;4978689;28;20033;-83
2022/12/26 06:41:16;;;;;;;3.00;0.80;;;;;;;;;;5013514;28;20033;-83
2022/12/26 06:43:42;;;;;;;3.60;1.00;;;;;;;;;;5012972;28;20512;-84
2022/12/26 06:46:14;;;;;;;1.52;1.05;;;;;;;;;;5011465;28;20048;-83
2022/12/26 06:48:40;;;;;;;1.10;1.00;;;;;;;;;;5017964;28;20398;-82
2022/12/26 06:51:16;;;;;;;1.80;1.17;;;;;;;;;;5012362;28;20208;-82
2022/12/26 06:53:43;;;;;;;1.85;1.10;;;;;;;;;;4995022;28;20033;-82
2022/12/26 06:56:15;;;;;;;1.30;0.93;;;;;;;;;;5012776;28;20077;-82
2022/12/26 06:58:41;;;;;;;1.05;0.90;;;;;;;;;;5012721;28;20465;-83
2022/12/26 07:01:09;;;;;;;1.52;0.88;;;;;;;;;;5011849;28;20038;-82
2022/12/26 07:03:34;;;;;;;1.40;0.90;;;;;;;;;;5013047;28;20061;-82
2022/12/26 07:06:10;;;;;;;1.48;0.90;;;;;;;;;;5012424;28;20065;-82
2022/12/26 07:08:36;;;;;;;1.25;0.98;;;;;;;;;;5013065;28;20037;-82
2022/12/26 07:11:01;;;;;;;2.03;1.23;;;;;;;;;;5013060;28;20042;-82
2022/12/26 07:13:27;;;;;;;2.38;1.33;;;;;;;;;;5012621;28;20037;-82
2022/12/26 07:15:52;;;;;;;2.13;1.38;;;;;;;;;;5012102;28;20133;-83
2022/12/26 07:18:18;;;;;;;2.03;1.27;;;;;;;;;;5012893;28;20045;-83
2022/12/26 07:20:44;;;;;;;2.22;1.40;;;;;;;;;;5012876;28;20034;-83
2022/12/26 07:23:09;;;;;;;2.35;1.70;;;;;;;;;;5012837;28;20030;-83
2022/12/26 07:25:36;;;;;;;2.70;1.67;;;;;;;;;;4994610;28;20124;-83
2022/12/26 07:28:02;;;;;;;1.60;1.20;;;;;;;;;;4995472;28;20034;-83
2022/12/26 07:30:27;;;;;;;2.45;1.33;;;;;;;;;;5012946;28;20026;-83
2022/12/26 07:32:53;;;;;;;1.67;1.15;;;;;;;;;;5012860;28;20541;-83
2022/12/26 07:35:18;;;;;;;1.45;1.05;;;;;;;;;;5012365;28;20037;-83
2022/12/26 07:37:44;;;;;;;2.42;1.48;;;;;;;;;;4995065;28;20046;-83
2022/12/26 07:40:10;;;;;;;1.67;1.13;;;;;;;;;;4995257;28;20069;-86
2022/12/26 07:42:35;;;;;;;1.85;1.15;;;;;;;;;;5013907;28;20499;-83
2022/12/26 07:45:01;;;;;;;2.25;1.50;;;;;;;;;;5012879;28;20100;-83
2022/12/26 07:47:26;;;;;;;2.05;1.35;;;;;;;;;;5013846;28;20034;-84
2022/12/26 07:49:52;;;;;;;1.63;1.17;;;;;;;;;;4998198;28;20082;-87
2022/12/26 07:52:18;;;;;;;3.03;1.70;;;;;;;;;;5019371;28;20032;-87
2022/12/26 07:54:44;;;;;;;2.72;1.75;;;;;;;;;;5001396;28;20080;-87
2022/12/26 07:57:09;;;;;;;2.47;1.70;;;;;;;;;;5001360;28;20033;-87
2022/12/26 07:59:35;;;;;;;4.28;1.80;;;;;;;;;;5002179;28;20049;-87
2022/12/26 08:02:03;;;;;;;2.80;1.42;;;;;;;;;;5001339;28;20038;-87
2022/12/26 08:04:32;;;;;;;1.70;1.20;;;;;;;;;;5018810;28;20432;-86
2022/12/26 08:06:58;;;;;;;1.75;1.23;;;;;;;;;;5018808;28;20132;-86
2022/12/26 08:09:23;;;;;;;1.63;1.13;;;;;;;;;;5018317;28;20495;-87
2022/12/26 08:11:48;;;;;;;2.25;1.20;;;;;;;;;;5016773;28;20033;-86
2022/12/26 08:14:17;;;;;;;3.13;1.20;;;;;;;;;;4998518;28;20886;-86
2022/12/26 08:16:43;;;;;;;2.00;1.30;;;;;;;;;;4999192;28;20029;-85
2022/12/26 08:19:10;;;;;;;1.73;1.23;;;;;;;;;;5016967;28;20040;-87
2022/12/26 08:21:36;;;;;;;2.28;1.50;;;;;;;;;;5000000;28;20061;-87
2022/12/26 08:24:01;;;;;;;1.92;1.15;;;;;;;;;;5015591;28;20033;-86
2022/12/26 08:26:27;;;;;;;2.25;1.30;;;;;;;;;;5017405;28;20033;-86
2022/12/26 08:28:54;;;;;;;3.55;1.30;;;;;;;;;;5016778;28;20036;-88
2022/12/26 08:31:20;;;;;;;3.00;1.83;;;;;;;;;;5018371;28;20053;-87
2022/12/26 08:33:46;;;;;;;2.03;1.25;;;;;;;;;;4999849;28;20033;-86
2022/12/26 08:36:15;;;;;;;1.83;1.27;;;;;;;;;;5017285;28;20064;-87
2022/12/26 08:38:41;;;;;;;1.30;1.08;;;;;;;;;;5017675;28;20048;-87
2022/12/26 08:41:07;;;;;;;1.65;1.13;;;;;;;;;;5018471;28;20125;-87
2022/12/26 08:43:34;;;;;;;1.85;1.00;;;;;;;;;;5016916;28;20048;-87
2022/12/26 08:46:06;;;;;;;2.55;1.00;;;;;;;;;;5017429;28;20550;-87
2022/12/26 08:48:32;;;;;;;1.45;1.00;;;;;;;;;;5016930;28;20033;-86
2022/12/26 08:51:01;;;;;;;2.08;1.08;;;;;;;;;;4999505;28;20060;-86
2022/12/26 08:53:28;;;;;;;1.38;1.10;;;;;;;;;;5015602;28;20045;-86
2022/12/26 08:55:54;;;;;;;1.65;1.10;;;;;;;;;;4998129;28;20041;-87
2022/12/26 08:58:20;;;;;;;1.00;0.90;;;;;;;;;;4998782;28;20038;-87
2022/12/26 09:00:46;;;;;;;2.10;1.20;;;;;;;;;;5000844;28;20049;-88
2022/12/26 09:03:11;;;;;;;2.17;1.33;;;;;;;;;;5017172;28;20101;-86
2022/12/26 09:05:37;;;;;;;2.88;1.40;;;;;;;;;;5000648;28;20046;-87
2022/12/26 09:08:03;;;;;;;1.48;1.20;;;;;;;;;;5001256;28;20026;-87
2022/12/26 09:10:28;;;;;;;1.50;1.00;;;;;;;;;;5018452;28;20053;-87
2022/12/26 09:12:54;;;;;;;1.92;1.35;;;;;;;;;;5019149;28;20057;-87
2022/12/26 09:15:20;;;;;;;2.60;1.13;;;;;;;;;;5001577;28;20038;-87
2022/12/26 09:17:45;;;;;;;1.65;1.17;;;;;;;;;;5001378;28;20064;-88
2022/12/26 09:20:11;;;;;;;1.25;0.95;;;;;;;;;;5020020;28;20112;-87
2022/12/26 09:22:52;;;;;;;2.05;1.40;;;;;;;;;;5001923;28;20045;-86
2022/12/26 09:25:25;;;;;;;1.15;1.00;;;;;;;;;;5018593;28;20034;-86
2022/12/26 09:27:52;;;;;;;2.08;1.10;;;;;;;;;;5001963;28;20061;-87
2022/12/26 09:30:18;;;;;;;1.52;1.10;;;;;;;;;;5018745;28;20041;-88
2022/12/26 09:32:44;;;;;;;1.77;1.20;;;;;;;;;;5020870;28;20052;-88
2022/12/26 09:35:09;;;;;;;1.40;1.08;;;;;;;;;;5018567;28;20034;-87
2022/12/26 09:37:35;;;;;;;1.48;1.17;;;;;;;;;;5017969;28;20470;-87
2022/12/26 09:40:00;;;;;;;1.67;1.15;;;;;;;;;;5016997;28;20038;-87
2022/12/26 09:42:47;;;;;;;1.33;1.00;;;;;;;;;;4998622;28;20132;-87
2022/12/26 09:45:18;;;;;;;2.00;1.17;;;;;;;;;;4998304;28;20038;-86
2022/12/26 09:48:18;;;;;;;3.40;1.13;;;;;;;;;;4999903;28;20030;-86
2022/12/26 09:50:47;;;;;;;1.98;1.30;;;;;;;;;;5018875;28;20044;-86
2022/12/26 09:53:33;;;;;;;2.28;1.35;;;;;;;;;;5018015;28;20029;-87
2022/12/26 09:56:03;;;;;;;1.45;1.00;;;;;;;;;;5018187;28;20034;-86
2022/12/26 09:58:28;;;;;;;1.60;1.20;;;;;;;;;;5020009;28;20483;-86
2022/12/26 10:01:06;;;;;;;1.20;1.00;;;;;;;;;;5000424;28;20030;-87
2022/12/26 10:03:38;;;;;;;2.00;1.23;;;;;;;;;;5017248;28;20037;-88
2022/12/26 10:06:13;;;;;;;3.35;1.30;;;;;;;;;;5016826;28;20115;-90
2022/12/26 10:09:13;;;;;;;3.50;1.60;;;;;;;;;;5001489;28;20156;-87
2022/12/26 10:11:41;;;;;;;4.63;1.80;;;;;;;;;;5015812;28;20036;-86
2022/12/26 10:14:16;;;;;;;3.00;1.40;;;;;;;;;;5014446;28;20030;-86
2022/12/26 10:16:53;;;;;;;1.95;1.23;;;;;;;;;;5016956;28;20060;-85
2022/12/26 10:19:48;;;;;;;4.00;1.98;;;;;;;;;;5018423;28;20061;-85
2022/12/26 10:22:21;;;;;;;3.00;1.40;;;;;;;;;;5017807;28;20045;-86
2022/12/26 10:24:48;;;;;;;2.33;1.30;;;;;;;;;;5016814;28;20030;-85
2022/12/26 10:27:16;;;;;;;1.42;1.00;;;;;;;;;;4998608;28;20053;-87
2022/12/26 10:29:54;;;;;;;1.33;1.00;;;;;;;;;;5015100;28;20032;-84
2022/12/26 10:32:40;;;;;;;1.35;0.85;;;;;;;;;;4995829;28;20410;-83
2022/12/26 10:35:37;;;;;;;3.67;1.00;;;;;;;;;;5014060;28;20071;-84
2022/12/26 10:38:22;;;;;;;1.70;1.02;;;;;;;;;;4998489;28;20097;-88
2022/12/26 10:40:50;;;;;;;1.80;1.30;;;;;;;;;;5013025;28;20061;-85
2022/12/26 10:43:19;;;;;;;1.30;1.10;;;;;;;;;;5012349;28;20505;-85
2022/12/26 10:45:56;;;;;;;1.60;1.20;;;;;;;;;;4995445;28;20034;-88
2022/12/26 10:48:25;;;;;;;2.83;1.20;;;;;;;;;;5013638;28;20033;-84
2022/12/26 10:50:52;;;;;;;1.60;1.00;;;;;;;;;;5012307;28;20054;-89
2022/12/26 10:53:18;;;;;;;3.03;1.10;;;;;;;;;;5013690;28;20107;-86
2022/12/26 10:55:44;;;;;;;1.67;1.10;;;;;;;;;;5012987;28;20112;-86
2022/12/26 10:58:20;;;;;;;1.52;1.00;;;;;;;;;;5013150;28;20026;-86
2022/12/26 11:00:46;;;;;;;4.05;1.10;;;;;;;;;;5021237;28;20044;-85
2022/12/26 11:03:17;;;;;;;1.30;1.00;;;;;;;;;;5033540;28;20029;-86
2022/12/26 11:05:45;;;;;;;1.65;1.05;;;;;;;;;;5024538;28;20033;-85
2022/12/26 11:08:26;;;;;;;1.58;1.10;;;;;;;;;;5022549;28;20033;-86
2022/12/26 11:11:03;;;;;;;2.10;1.40;;;;;;;;;;5023403;28;20041;-84
2022/12/26 11:13:35;;;;;;;1.23;1.00;;;;;;;;;;4993186;28;20035;-84
2022/12/26 11:16:01;;;;;;;1.75;1.13;;;;;;;;;;4992705;28;20038;-84
2022/12/26 11:18:52;;;;;;;1.73;1.13;;;;;;;;;;4993658;28;20039;-84
2022/12/26 11:21:17;;;;;;;1.20;1.00;;;;;;;;;;4993327;28;20054;-85
2022/12/26 11:23:48;;;;;;;1.65;0.95;;;;;;;;;;4993470;28;20060;-86
2022/12/26 11:26:26;;;;;;;1.23;0.95;;;;;;;;;;4996931;28;20133;-86
2022/12/26 11:29:13;;;;;;;0.95;0.88;;;;;;;;;;4998770;28;20049;-86
2022/12/26 11:31:42;;;;;;;2.38;1.17;;;;;;;;;;4997900;28;20611;-86
2022/12/26 11:34:10;;;;;;;1.65;1.00;;;;;;;;;;4998233;28;20546;-85
2022/12/26 11:36:39;;;;;;;1.20;0.90;;;;;;;;;;4997941;28;20064;-84
2022/12/26 11:39:23;;;;;;;1.42;1.10;;;;;;;;;;4998341;28;20043;-86
2022/12/26 11:41:49;;;;;;;;;;;;;;;;;;4998409;28;20038;-85
2022/12/26 11:44:35;;;;;;;1.50;1.00;;;;;;;;;;4996661;28;19917;-84
2022/12/26 11:47:08;;;;;;;1.73;1.20;;;;;;;;;;4979685;28;20550;-86
2022/12/26 11:49:39;;;;;;;1.63;1.20;;;;;;;;;;4997386;28;20052;-87
2022/12/26 11:52:44;;;;;;;1.98;1.10;;;;;;;;;;4980547;28;20447;-88
2022/12/26 11:55:28;;;;;;;1.27;0.80;;;;;;;;;;4998135;28;20037;-87
2022/12/26 11:58:09;;;;;;;3.08;1.00;;;;;;;;;;4982644;28;20034;-87
2022/12/26 12:00:37;;;;;;;1.38;1.00;;;;;;;;;;4982586;28;20046;-87
2022/12/26 12:03:19;;;;;;;1.05;0.88;;;;;;;;;;5000823;28;20042;-87
2022/12/26 12:06:11;;;;;;;3.13;1.08;;;;;;;;;;4998625;28;20034;-87
2022/12/26 12:08:56;;;;;;;1.20;0.80;;;;;;;;;;4999693;28;20064;-87
2022/12/26 12:11:40;;;;;;;2.10;0.90;;;;;;;;;;4982076;28;20096;-87
2022/12/26 12:14:08;;;;;;;;;;;;;;;;;;4999876;28;20121;-86
2022/12/26 12:16:46;;;;;;;1.30;1.00;;;;;;;;;;4999286;28;19918;-86
2022/12/26 12:19:24;;;;;;;1.70;1.00;;;;;;;;;;4982070;28;20483;-87
2022/12/26 12:22:03;;;;;;;1.45;0.88;;;;;;;;;;4999670;28;20077;-87
2022/12/26 12:24:31;;;;;;;1.30;1.00;;;;;;;;;;4999090;28;20419;-88
2022/12/26 12:27:26;;;;;;;1.80;1.20;;;;;;;;;;4998682;28;20480;-87
2022/12/26 12:29:58;;;;;;;1.27;0.90;;;;;;;;;;4982647;28;20041;-87
2022/12/26 12:32:57;;;;;;;2.50;1.40;;;;;;;;;;4999492;28;20035;-87
2022/12/26 12:35:29;;;;;;;3.20;1.80;;;;;;;;;;4999352;28;20030;-87
2022/12/26 12:38:15;;;;;;;4.80;2.17;;;;;;;;;;4997907;28;20049;-88
2022/12/26 12:40:59;;;;;;;4.53;2.42;;;;;;;;;;5000213;28;20459;-88
2022/12/26 12:43:40;;;;;;;4.10;2.63;;;;;;;;;;5000037;28;20559;-87
2022/12/26 12:46:15;;;;;;;3.75;1.90;;;;;;;;;;4981680;28;20049;-87
2022/12/26 12:48:46;;;;;;;3.40;2.15;;;;;;;;;;4999918;28;20030;-87
2022/12/26 12:51:30;;;;;;;5.90;2.85;;;;;;;;;;5000396;28;20034;-87
2022/12/26 12:54:20;;;;;;;3.63;1.90;;;;;;;;;;4999341;28;20446;-86
2022/12/26 12:57:04;;;;;;;3.30;1.80;;;;;;;;;;5000048;28;20047;-87
2022/12/26 12:59:38;;;;;;;3.55;1.90;;;;;;;;;;4998149;28;20038;-87
2022/12/26 13:02:16;;;;;;;1.88;1.38;;;;;;;;;;4999501;28;20034;-87
2022/12/26 13:04:47;;;;;;;2.80;1.60;;;;;;;;;;4981852;28;20038;-87
2022/12/26 13:07:19;;;;;;;1.95;1.45;;;;;;;;;;4999489;28;20042;-88
2022/12/26 13:10:15;;;;;;;2.88;1.70;;;;;;;;;;4982399;28;20073;-88
2022/12/26 13:12:43;;;;;;;3.90;2.55;;;;;;;;;;4978331;28;20046;-87
2022/12/26 13:15:26;;;;;;;3.38;1.90;;;;;;;;;;4981705;28;20035;-87
2022/12/26 13:17:59;;;;;;;1.50;1.05;;;;;;;;;;4999952;28;20039;-87
2022/12/26 13:20:40;;;;;;;1.55;1.00;;;;;;;;;;5000773;28;20039;-88
2022/12/26 13:26:09;;;;;;;2.55;1.60;;;;;;;;;;5000520;28;20042;-87
2022/12/26 13:28:46;;;;;;;2.25;1.40;;;;;;;;;;5000004;28;20034;-87
2022/12/26 13:31:12;;;;;;;3.58;1.65;;;;;;;;;;5000247;28;20521;-87
2022/12/26 13:33:41;;;;;;;2.83;1.30;;;;;;;;;;4982647;28;20480;-87
2022/12/26 13:36:07;;;;;;;1.13;0.90;;;;;;;;;;4998451;28;20053;-89
2022/12/26 13:38:57;;;;;;;2.22;1.10;;;;;;;;;;4999896;28;20038;-88
2022/12/26 13:44:18;;;;;;;1.50;1.02;;;;;;;;;;4981174;28;20042;-88
2022/12/26 13:46:46;;;;;;;2.05;1.40;;;;;;;;;;4998827;28;20061;-88
2022/12/26 13:49:37;;;;;;;1.85;1.20;;;;;;;;;;5007027;28;20018;-88
2022/12/26 13:52:18;;;;;;;17.83;11.40;;;;;;;;;;4993894;28;20033;-88
2022/12/26 13:54:50;;;;;;;135.73;70.80;;;;;;;;;;5000019;28;20132;-88
2022/12/26 13:57:39;;;;;;;52.97;30.50;;;;;;;;;;5000682;28;20125;-87
2022/12/26 14:00:20;;;;;;;23.85;14.68;;;;;;;;;;5000173;28;20121;-87
2022/12/26 14:03:23;;;;;;;11.05;6.20;;;;;;;;;;5019046;28;20042;-87
2022/12/26 14:06:37;;;;;;;;;;;;;;;;;;;;;
2022/12/26 14:09:47;;;;;;;11.02;6.90;;;;;;;;;;5009094;28;20053;-86
2022/12/26 14:12:25;;;;;;;7.65;4.80;;;;;;;;;;5003869;28;20044;-88
2022/12/26 14:15:15;;;;;;;2.78;1.75;;;;;;;;;;5001551;28;20065;-86
2022/12/26 14:18:02;;;;;;;2.17;1.20;;;;;;;;;;5019067;28;20042;-88
2022/12/26 14:20:43;;;;;;;2.03;1.30;;;;;;;;;;5019409;28;20044;-86
2022/12/26 14:23:33;;;;;;;1.65;1.17;;;;;;;;;;5001648;28;20037;-88
2022/12/26 14:26:12;;;;;;;1.90;1.20;;;;;;;;;;5016566;28;20041;-87
2022/12/26 14:28:53;;;;;;;1.80;1.40;;;;;;;;;;5018024;28;20026;-86
2022/12/26 14:31:31;;;;;;;3.78;2.28;;;;;;;;;;5019348;28;20034;-88
2022/12/26 14:34:11;;;;;;;4.40;2.55;;;;;;;;;;5020054;28;20517;-87
2022/12/26 14:36:54;;;;;;;2.67;1.70;;;;;;;;;;5015251;28;20045;-88
2022/12/26 14:39:48;;;;;;;2.53;1.45;;;;;;;;;;5016077;28;20073;-88
2022/12/26 14:45:19;;;;;;;3.92;1.92;;;;;;;;;;5015118;28;20034;-88
2022/12/26 14:47:47;;;;;;;3.55;2.10;;;;;;;;;;5014337;28;20040;-88
2022/12/26 14:50:31;;;;;;;5.35;4.00;;;;;;;;;;5014334;28;20088;-88
2022/12/26 14:53:18;;;;;;;5.30;3.50;;;;;;;;;;5015380;28;20045;-88
2022/12/26 14:55:50;;;;;;;2.97;2.00;;;;;;;;;;5018579;28;20030;-88
2022/12/26 14:58:31;;;;;;;3.42;2.20;;;;;;;;;;5001418;28;20501;-88
2022/12/26 15:01:11;;;;;;;7.97;3.00;;;;;;;;;;5017742;28;20077;-88
2022/12/26 15:04:01;;;;;;;3.80;2.28;;;;;;;;;;5016742;28;20056;-87
2022/12/26 15:06:54;;;;;;;6.15;3.88;;;;;;;;;;5001272;28;20055;-88
2022/12/26 15:09:23;;;;;;;4.03;1.95;;;;;;;;;;5002020;28;20057;-88
2022/12/26 15:11:54;;;;;;;7.22;3.05;;;;;;;;;;5002155;28;20081;-88
2022/12/26 15:14:20;;;;;;;6.70;3.63;;;;;;;;;;5020628;28;20033;-88
2022/12/26 15:16:48;;;;;;;8.27;4.35;;;;;;;;;;5020360;28;20582;-87
2022/12/26 15:19:29;;;;;;;7.70;4.38;;;;;;;;;;5004451;28;20376;-88
2022/12/26 15:22:15;;;;;;;5.18;3.40;;;;;;;;;;5022678;28;20042;-88
2022/12/26 15:24:44;;;;;;;7.68;3.70;;;;;;;;;;5019565;28;20054;-89
2022/12/26 15:27:33;;;;;;;6.03;3.47;;;;;;;;;;5017888;28;20171;-89
2022/12/26 15:30:13;;;;;;;7.38;4.05;;;;;;;;;;5017918;28;20106;-88
2022/12/26 15:32:50;;;;;;;4.05;2.65;;;;;;;;;;5020947;28;20041;-88
2022/12/26 15:35:21;;;;;;;3.15;2.10;;;;;;;;;;5020804;28;20054;-88
2022/12/26 15:38:02;;;;;;;2.90;1.90;;;;;;;;;;5016444;28;20116;-87
2022/12/26 15:40:33;;;;;;;3.65;1.90;;;;;;;;;;5018948;28;20071;-88
2022/12/26 15:43:18;;;;;;;3.13;2.08;;;;;;;;;;5017707;28;20042;-88
2022/12/26 15:45:47;;;;;;;4.03;2.10;;;;;;;;;;5018490;28;20030;-88
2022/12/26 15:48:24;;;;;;;3.05;2.15;;;;;;;;;;5018154;28;20038;-87
2022/12/26 15:51:10;;;;;;;4.35;2.58;;;;;;;;;;5020518;28;20038;-88
2022/12/26 15:53:53;;;;;;;4.20;1.23;;;;;;;;;;5024686;28;20038;-88
2022/12/26 15:56:46;;;;;;;3.08;1.83;;;;;;;;;;5035487;28;20693;-87
2022/12/26 15:59:50;;;;;;;2.05;1.30;;;;;;;;;;5006696;28;20045;-86
2022/12/26 16:02:24;;;;;;;2.55;1.30;;;;;;;;;;5024637;28;20033;-86
2022/12/26 16:04:55;;;;;;;2.78;1.27;;;;;;;;;;5024143;28;20048;-89
2022/12/26 16:07:33;;;;;;;2.42;1.17;;;;;;;;;;5021285;28;20034;-85
2022/12/26 16:09:58;;;;;;;2.22;1.20;;;;;;;;;;5019770;28;20034;-84
2022/12/26 16:12:29;;;;;;;1.98;1.30;;;;;;;;;;5023494;28;20030;-87
2022/12/26 16:15:09;;;;;;;3.88;1.90;;;;;;;;;;5025767;28;20038;-89
2022/12/26 16:17:36;;;;;;;1.95;1.27;;;;;;;;;;5031384;28;20034;-87
2022/12/26 16:23:25;;;;;;;3.95;1.70;;;;;;;;;;4949009;29;20085;-87
2022/12/26 16:25:53;;;;;;;2.63;1.50;;;;;;;;;;5004392;28;20046;-87
2022/12/26 16:28:41;;;;;;;6.05;1.60;;;;;;;;;;5028104;28;20026;-87
2022/12/26 16:31:08;;;;;;;4.28;2.40;;;;;;;;;;5025738;28;20036;-87
2022/12/26 16:33:42;;;;;;;2.95;2.00;;;;;;;;;;5041492;28;20045;-85
2022/12/26 16:36:09;;;;;;;4.95;3.00;;;;;;;;;;5019915;28;20103;-85
2022/12/26 16:38:36;;;;;;;5.18;2.38;;;;;;;;;;5019694;28;20111;-85
2022/12/26 16:41:17;;;;;;;2.60;1.58;;;;;;;;;;5020921;28;20033;-86
2022/12/26 16:43:43;;;;;;;2.20;1.20;;;;;;;;;;5038530;28;20037;-88
2022/12/26 16:46:11;;;;;;;6.28;3.05;;;;;;;;;;5037174;28;20026;-87
2022/12/26 16:48:37;;;;;;;7.22;3.22;;;;;;;;;;5038412;28;20029;-87
2022/12/26 16:51:28;;;;;;;6.70;3.13;;;;;;;;;;5038340;28;20040;-87
2022/12/26 16:53:54;;;;;;;4.13;2.30;;;;;;;;;;5020203;28;20029;-87
2022/12/26 16:56:50;;;;;;;1.00;0.65;;;;;;;;;;5038112;28;20448;-88
2022/12/26 16:59:23;;;;;;;1.10;0.85;;;;;;;;;;5037608;28;20049;-87
2022/12/26 17:01:51;;;;;;;2.47;1.40;;;;;;;;;;5020647;28;20132;-87
2022/12/26 17:04:19;;;;;;;2.15;1.55;;;;;;;;;;5017942;28;20543;-87
2022/12/26 17:06:56;;;;;;;1.83;1.00;;;;;;;;;;5020622;28;20034;-84
2022/12/26 17:09:23;;;;;;;1.48;1.10;;;;;;;;;;5013331;28;20073;-84
2022/12/26 17:11:51;;;;;;;60.90;41.40;;;;;;;;;;5038333;28;20037;-84
2022/12/26 17:14:38;;;;;;;1.83;1.00;;;;;;;;;;5038507;28;20092;-83
2022/12/26 17:17:22;;;;;;;4.28;2.80;;;;;;;;;;5020405;28;20545;-82
2022/12/26 17:19:48;;;;;;;;;;;;;;;;;;5039957;28;20046;-84
2022/12/26 17:22:13;;;;;;;5.28;3.22;;;;;;;;;;5019209;28;20362;-83
2022/12/26 17:24:44;;;;;;;4.78;2.60;;;;;;;;;;5017863;28;20120;-82
2022/12/26 17:27:23;;;;;;;2.90;1.67;;;;;;;;;;5018478;28;20041;-83
2022/12/26 17:30:00;;;;;;;3.33;1.70;;;;;;;;;;5019443;28;20045;-84
2022/12/26 17:32:39;;;;;;;4.40;2.03;;;;;;;;;;5019274;28;20030;-83
2022/12/26 17:35:18;;;;;;;2.33;1.60;;;;;;;;;;5018214;28;20041;-84